sensor_id;sensor_type;location;lat;lon;timestamp;pressure;altitude;pressure_sealevel;temperature;humidity
46291;BME280;32023;44.444;26.006;2022-11-02T00:01:02;100778.25;;;12.96;67.30
46291;BME280;32023;44.444;26.006;2022-11-02T00:03:33;100784.31;;;12.93;67.47
46291;BME280;32023;44.444;26.006;2022-11-02T00:05:59;100784.59;;;12.91;67.86
46291;BME280;32023;44.444;26.006;2022-11-02T00:08:26;100789.28;;;12.91;67.75
46291;BME280;32023;44.444;26.006;2022-11-02T00:10:52;100783.47;;;12.87;67.96
46291;BME280;32023;44.444;26.006;2022-11-02T00:13:26;100772.91;;;12.84;67.89
46291;BME280;32023;44.444;26.006;2022-11-02T00:15:52;100782.03;;;12.80;67.94
46291;BME280;32023;44.444;26.006;2022-11-02T00:18:19;100775.84;;;12.73;67.97
46291;BME280;32023;44.444;26.006;2022-11-02T00:20:45;100777.50;;;12.69;68.30
46291;BME280;32023;44.444;26.006;2022-11-02T00:23:12;100782.97;;;12.64;68.43
46291;BME280;32023;44.444;26.006;2022-11-02T00:25:41;100776.31;;;12.60;68.92
46291;BME280;32023;44.444;26.006;2022-11-02T00:28:10;100769.91;;;12.54;68.76
46291;BME280;32023;44.444;26.006;2022-11-02T00:30:37;100766.28;;;12.48;69.07
46291;BME280;32023;44.444;26.006;2022-11-02T00:33:03;100764.03;;;12.45;69.25
46291;BME280;32023;44.444;26.006;2022-11-02T00:35:30;100770.09;;;12.42;69.26
46291;BME280;32023;44.444;26.006;2022-11-02T00:38:00;100757.91;;;12.38;69.39
46291;BME280;32023;44.444;26.006;2022-11-02T00:40:26;100754.84;;;12.35;70.05
46291;BME280;32023;44.444;26.006;2022-11-02T00:42:53;100757.84;;;12.33;70.03
46291;BME280;32023;44.444;26.006;2022-11-02T00:45:20;100757.84;;;12.33;70.08
46291;BME280;32023;44.444;26.006;2022-11-02T00:47:48;100754.00;;;12.34;70.27
46291;BME280;32023;44.444;26.006;2022-11-02T00:50:14;100753.47;;;12.37;70.00
46291;BME280;32023;44.444;26.006;2022-11-02T00:52:43;100750.16;;;12.40;70.04
46291;BME280;32023;44.444;26.006;2022-11-02T00:55:09;100748.00;;;12.42;70.23
46291;BME280;32023;44.444;26.006;2022-11-02T00:57:38;100740.81;;;12.46;69.72
46291;BME280;32023;44.444;26.006;2022-11-02T01:00:06;100743.91;;;12.50;69.86
46291;BME280;32023;44.444;26.006;2022-11-02T01:02:34;100738.41;;;12.50;69.58
46291;BME280;32023;44.444;26.006;2022-11-02T01:05:01;100737.59;;;12.54;69.59
46291;BME280;32023;44.444;26.006;2022-11-02T01:07:28;100728.16;;;12.50;69.69
46291;BME280;32023;44.444;26.006;2022-11-02T01:10:02;100734.22;;;12.47;69.75
46291;BME280;32023;44.444;26.006;2022-11-02T01:12:28;100728.06;;;12.40;69.99
46291;BME280;32023;44.444;26.006;2022-11-02T01:14:55;100725.56;;;12.39;70.28
46291;BME280;32023;44.444;26.006;2022-11-02T01:17:21;100724.75;;;12.38;70.07
46291;BME280;32023;44.444;26.006;2022-11-02T01:19:49;100718.13;;;12.39;70.16
46291;BME280;32023;44.444;26.006;2022-11-02T01:22:16;100720.31;;;12.37;70.28
46291;BME280;32023;44.444;26.006;2022-11-02T01:24:42;100721.41;;;12.36;70.35
46291;BME280;32023;44.444;26.006;2022-11-02T01:27:08;100716.72;;;12.37;70.55
46291;BME280;32023;44.444;26.006;2022-11-02T01:29:35;100716.97;;;12.35;70.59
46291;BME280;32023;44.444;26.006;2022-11-02T01:32:07;100712.59;;;12.39;70.36
46291;BME280;32023;44.444;26.006;2022-11-02T01:34:33;100724.75;;;12.38;70.57
46291;BME280;32023;44.444;26.006;2022-11-02T01:36:59;100717.56;;;12.37;70.41
46291;BME280;32023;44.444;26.006;2022-11-02T01:39:26;100721.16;;;12.38;70.22
46291;BME280;32023;44.444;26.006;2022-11-02T01:41:53;100716.41;;;12.33;70.16
46291;BME280;32023;44.444;26.006;2022-11-02T01:44:40;100564.34;;;11.18;70.01
46291;BME280;32023;44.444;26.006;2022-11-02T01:47:17;100714.59;;;12.12;70.41
46291;BME280;32023;44.444;26.006;2022-11-02T01:49:52;100713.13;;;12.04;70.98
46291;BME280;32023;44.444;26.006;2022-11-02T01:52:35;100713.84;;;11.95;71.61
46291;BME280;32023;44.444;26.006;2022-11-02T01:55:21;100697.19;;;11.85;71.62
46291;BME280;32023;44.444;26.006;2022-11-02T01:58:02;100702.38;;;11.81;71.83
46291;BME280;32023;44.444;26.006;2022-11-02T02:00:30;100693.53;;;11.79;72.15
46291;BME280;32023;44.444;26.006;2022-11-02T02:03:13;100702.63;;;11.80;71.99
46291;BME280;32023;44.444;26.006;2022-11-02T02:05:55;100696.03;;;11.81;72.35
46291;BME280;32023;44.444;26.006;2022-11-02T02:08:24;100695.72;;;11.77;72.20
46291;BME280;32023;44.444;26.006;2022-11-02T02:10:55;100699.00;;;11.74;72.72
46291;BME280;32023;44.444;26.006;2022-11-02T02:13:22;100695.91;;;11.71;72.81
46291;BME280;32023;44.444;26.006;2022-11-02T02:16:01;100690.63;;;11.69;72.48
46291;BME280;32023;44.444;26.006;2022-11-02T02:18:44;100689.78;;;11.69;73.00
46291;BME280;32023;44.444;26.006;2022-11-02T02:24:19;100687.50;;;11.60;73.43
46291;BME280;32023;44.444;26.006;2022-11-02T02:35:10;100674.16;;;11.52;74.16
46291;BME280;32023;44.444;26.006;2022-11-02T02:38:07;100678.28;;;11.50;74.42
46291;BME280;32023;44.444;26.006;2022-11-02T02:40:47;100682.94;;;11.49;74.55
46291;BME280;32023;44.444;26.006;2022-11-02T02:43:51;100643.03;;;11.30;74.50
46291;BME280;32023;44.444;26.006;2022-11-02T02:46:22;100673.84;;;11.49;74.09
46291;BME280;32023;44.444;26.006;2022-11-02T02:48:53;100661.94;;;11.43;74.42
46291;BME280;32023;44.444;26.006;2022-11-02T02:51:30;100669.06;;;11.39;74.60
46291;BME280;32023;44.444;26.006;2022-11-02T02:54:07;100671.28;;;11.42;74.83
46291;BME280;32023;44.444;26.006;2022-11-02T02:56:38;100665.78;;;11.42;74.39
46291;BME280;32023;44.444;26.006;2022-11-02T02:59:07;100659.94;;;11.39;74.50
46291;BME280;32023;44.444;26.006;2022-11-02T03:01:40;100665.16;;;11.35;74.11
46291;BME280;32023;44.444;26.006;2022-11-02T03:04:11;100669.50;;;11.31;73.85
46291;BME280;32023;44.444;26.006;2022-11-02T03:06:39;100666.69;;;11.26;74.40
46291;BME280;32023;44.444;26.006;2022-11-02T03:09:17;100668.22;;;11.17;73.62
46291;BME280;32023;44.444;26.006;2022-11-02T03:14:32;100665.28;;;11.02;74.71
46291;BME280;32023;44.444;26.006;2022-11-02T03:17:17;100664.13;;;10.98;74.94
46291;BME280;32023;44.444;26.006;2022-11-02T03:22:32;100665.78;;;10.99;75.51
46291;BME280;32023;44.444;26.006;2022-11-02T03:27:40;100663.81;;;10.94;75.42
46291;BME280;32023;44.444;26.006;2022-11-02T03:30:19;100667.97;;;10.97;75.70
46291;BME280;32023;44.444;26.006;2022-11-02T03:33:09;100667.13;;;10.96;75.38
46291;BME280;32023;44.444;26.006;2022-11-02T03:36:03;100667.13;;;10.96;74.81
46291;BME280;32023;44.444;26.006;2022-11-02T03:39:03;100670.94;;;10.95;74.83
46291;BME280;32023;44.444;26.006;2022-11-02T03:41:52;100662.97;;;10.94;74.79
46291;BME280;32023;44.444;26.006;2022-11-02T03:44:23;100673.16;;;10.93;75.29
46291;BME280;32023;44.444;26.006;2022-11-02T03:46:54;100671.16;;;10.89;75.00
46291;BME280;32023;44.444;26.006;2022-11-02T03:52:06;100673.16;;;10.77;75.80
46291;BME280;32023;44.444;26.006;2022-11-02T03:55:04;100674.72;;;10.68;75.90
46291;BME280;32023;44.444;26.006;2022-11-02T03:57:47;100676.53;;;10.62;76.23
46291;BME280;32023;44.444;26.006;2022-11-02T04:00:19;100670.69;;;10.58;76.56
46291;BME280;32023;44.444;26.006;2022-11-02T04:02:49;100672.06;;;10.56;76.58
46291;BME280;32023;44.444;26.006;2022-11-02T04:05:17;100670.66;;;10.53;76.98
46291;BME280;32023;44.444;26.006;2022-11-02T04:07:49;100672.22;;;10.49;77.17
46291;BME280;32023;44.444;26.006;2022-11-02T04:10:35;100670.06;;;10.51;77.12
46291;BME280;32023;44.444;26.006;2022-11-02T04:13:30;100658.19;;;10.51;77.52
46291;BME280;32023;44.444;26.006;2022-11-02T04:16:16;100657.97;;;10.52;77.46
46291;BME280;32023;44.444;26.006;2022-11-02T04:18:43;100631.88;;;10.38;78.27
46291;BME280;32023;44.444;26.006;2022-11-02T04:21:33;100651.94;;;10.55;78.21
46291;BME280;32023;44.444;26.006;2022-11-02T04:24:47;100648.75;;;10.63;77.65
46291;BME280;32023;44.444;26.006;2022-11-02T04:31:06;100657.16;;;10.74;78.23
46291;BME280;32023;44.444;26.006;2022-11-02T04:33:36;100651.72;;;10.79;77.59
46291;BME280;32023;44.444;26.006;2022-11-02T04:36:16;100657.81;;;10.81;78.37
46291;BME280;32023;44.444;26.006;2022-11-02T04:38:42;100650.69;;;10.85;77.60
46291;BME280;32023;44.444;26.006;2022-11-02T04:41:13;100653.47;;;10.85;77.75
46291;BME280;32023;44.444;26.006;2022-11-02T04:44:22;100652.38;;;10.86;77.61
46291;BME280;32023;44.444;26.006;2022-11-02T04:46:53;100642.44;;;10.85;77.24
46291;BME280;32023;44.444;26.006;2022-11-02T04:49:21;100637.97;;;10.79;77.03
46291;BME280;32023;44.444;26.006;2022-11-02T04:51:53;100639.31;;;10.76;77.10
46291;BME280;32023;44.444;26.006;2022-11-02T04:54:29;100639.78;;;10.73;77.21
46291;BME280;32023;44.444;26.006;2022-11-02T04:56:55;100646.97;;;10.74;77.25
46291;BME280;32023;44.444;26.006;2022-11-02T04:59:24;100648.34;;;10.72;77.18
46291;BME280;32023;44.444;26.006;2022-11-02T05:01:53;100646.66;;;10.71;76.86
46291;BME280;32023;44.444;26.006;2022-11-02T05:04:40;100654.41;;;10.74;77.39
46291;BME280;32023;44.444;26.006;2022-11-02T05:07:10;100659.16;;;10.78;77.26
46291;BME280;32023;44.444;26.006;2022-11-02T05:09:39;100653.97;;;10.82;77.44
46291;BME280;32023;44.444;26.006;2022-11-02T05:12:07;100653.22;;;10.86;76.97
46291;BME280;32023;44.444;26.006;2022-11-02T05:14:34;100654.63;;;10.89;76.63
46291;BME280;32023;44.444;26.006;2022-11-02T05:17:01;100648.53;;;10.87;76.03
46291;BME280;32023;44.444;26.006;2022-11-02T05:19:27;100647.44;;;10.88;76.03
46291;BME280;32023;44.444;26.006;2022-11-02T05:21:54;100645.78;;;10.87;75.55
46291;BME280;32023;44.444;26.006;2022-11-02T05:24:28;100643.59;;;10.89;75.22
46291;BME280;32023;44.444;26.006;2022-11-02T05:26:57;100654.09;;;10.92;74.71
46291;BME280;32023;44.444;26.006;2022-11-02T05:29:29;100667.13;;;10.96;74.46
46291;BME280;32023;44.444;26.006;2022-11-02T05:31:56;100659.13;;;10.95;73.70
46291;BME280;32023;44.444;26.006;2022-11-02T05:34:27;100666.59;;;10.99;73.24
46291;BME280;32023;44.444;26.006;2022-11-02T05:36:54;100673.59;;;11.07;73.50
46291;BME280;32023;44.444;26.006;2022-11-02T05:39:23;100670.66;;;11.14;73.05
46291;BME280;32023;44.444;26.006;2022-11-02T05:41:52;100676.53;;;11.22;71.86
46291;BME280;32023;44.444;26.006;2022-11-02T05:44:19;100668.97;;;11.34;71.57
46291;BME280;32023;44.444;26.006;2022-11-02T05:46:45;100670.47;;;11.42;70.84
46291;BME280;32023;44.444;26.006;2022-11-02T05:49:18;100664.25;;;11.51;70.70
46291;BME280;32023;44.444;26.006;2022-11-02T05:51:46;100674.00;;;11.64;70.47
46291;BME280;32023;44.444;26.006;2022-11-02T05:54:14;100666.66;;;11.70;69.69
46291;BME280;32023;44.444;26.006;2022-11-02T05:56:40;100667.97;;;11.89;69.13
46291;BME280;32023;44.444;26.006;2022-11-02T05:59:12;100659.78;;;11.99;68.62
46291;BME280;32023;44.444;26.006;2022-11-02T06:01:41;100667.91;;;12.11;68.57
46291;BME280;32023;44.444;26.006;2022-11-02T06:04:16;100666.19;;;12.36;67.92
46291;BME280;32023;44.444;26.006;2022-11-02T06:06:45;100662.44;;;12.52;67.24
46291;BME280;32023;44.444;26.006;2022-11-02T06:09:12;100673.06;;;12.71;66.40
46291;BME280;32023;44.444;26.006;2022-11-02T06:11:40;100662.44;;;12.94;65.73
46291;BME280;32023;44.444;26.006;2022-11-02T06:14:09;100676.91;;;13.12;65.12
46291;BME280;32023;44.444;26.006;2022-11-02T06:16:36;100666.81;;;13.32;64.38
46291;BME280;32023;44.444;26.006;2022-11-02T06:19:10;100662.97;;;13.48;63.79
46291;BME280;32023;44.444;26.006;2022-11-02T06:21:39;100663.28;;;13.67;63.23
46291;BME280;32023;44.444;26.006;2022-11-02T06:24:12;100660.31;;;13.89;62.27
46291;BME280;32023;44.444;26.006;2022-11-02T06:26:43;100665.88;;;14.04;61.57
46291;BME280;32023;44.444;26.006;2022-11-02T06:29:25;100665.06;;;14.29;60.82
46291;BME280;32023;44.444;26.006;2022-11-02T06:32:00;100663.41;;;14.43;60.33
46291;BME280;32023;44.444;26.006;2022-11-02T06:34:29;100662.28;;;14.59;59.67
46291;BME280;32023;44.444;26.006;2022-11-02T06:37:02;100675.56;;;14.77;59.26
46291;BME280;32023;44.444;26.006;2022-11-02T06:39:31;100663.88;;;15.01;58.83
46291;BME280;32023;44.444;26.006;2022-11-02T06:42:00;100679.03;;;15.28;57.92
46291;BME280;32023;44.444;26.006;2022-11-02T06:44:38;100673.19;;;15.40;57.31
46291;BME280;32023;44.444;26.006;2022-11-02T06:47:05;100673.41;;;15.54;56.87
46291;BME280;32023;44.444;26.006;2022-11-02T06:49:39;100671.13;;;15.66;56.49
46291;BME280;32023;44.444;26.006;2022-11-02T06:52:07;100679.06;;;15.87;55.85
46291;BME280;32023;44.444;26.006;2022-11-02T06:54:35;100670.38;;;15.99;55.40
46291;BME280;32023;44.444;26.006;2022-11-02T06:57:05;100673.06;;;16.09;55.11
46291;BME280;32023;44.444;26.006;2022-11-02T06:59:32;100669.22;;;16.39;54.49
46291;BME280;32023;44.444;26.006;2022-11-02T07:01:58;100668.97;;;16.69;53.63
46291;BME280;32023;44.444;26.006;2022-11-02T07:04:24;100669.56;;;16.95;53.24
46291;BME280;32023;44.444;26.006;2022-11-02T07:06:54;100670.94;;;17.21;52.51
46291;BME280;32023;44.444;26.006;2022-11-02T07:09:21;100675.72;;;17.40;52.09
46291;BME280;32023;44.444;26.006;2022-11-02T07:11:47;100668.78;;;17.61;51.74
46291;BME280;32023;44.444;26.006;2022-11-02T07:14:17;100663.09;;;17.71;50.93
46291;BME280;32023;44.444;26.006;2022-11-02T07:16:43;100670.84;;;17.93;50.24
46291;BME280;32023;44.444;26.006;2022-11-02T07:19:10;100669.63;;;18.17;49.95
46291;BME280;32023;44.444;26.006;2022-11-02T07:21:38;100659.22;;;18.42;49.23
46291;BME280;32023;44.444;26.006;2022-11-02T07:24:05;100660.25;;;18.64;48.67
46291;BME280;32023;44.444;26.006;2022-11-02T07:26:34;100658.84;;;18.94;47.66
46291;BME280;32023;44.444;26.006;2022-11-02T07:29:00;100660.00;;;19.20;46.99
46291;BME280;32023;44.444;26.006;2022-11-02T07:34:01;100655.25;;;19.62;45.96
46291;BME280;32023;44.444;26.006;2022-11-02T07:36:30;100654.91;;;19.77;45.76
46291;BME280;32023;44.444;26.006;2022-11-02T07:38:59;100656.31;;;19.88;45.30
46291;BME280;32023;44.444;26.006;2022-11-02T07:41:26;100641.88;;;20.08;45.07
46291;BME280;32023;44.444;26.006;2022-11-02T07:43:59;100645.22;;;20.33;44.66
46291;BME280;32023;44.444;26.006;2022-11-02T07:46:29;100654.03;;;20.48;44.41
46291;BME280;32023;44.444;26.006;2022-11-02T07:48:56;100646.75;;;20.92;43.44
46291;BME280;32023;44.444;26.006;2022-11-02T07:51:25;100653.34;;;21.27;42.64
46291;BME280;32023;44.444;26.006;2022-11-02T07:53:54;100644.84;;;21.49;42.17
46291;BME280;32023;44.444;26.006;2022-11-02T07:56:29;100644.53;;;21.50;42.10
46291;BME280;32023;44.444;26.006;2022-11-02T07:58:56;100639.75;;;21.68;41.70
46291;BME280;32023;44.444;26.006;2022-11-02T08:01:35;100636.16;;;21.85;41.24
46291;BME280;32023;44.444;26.006;2022-11-02T08:04:07;100623.69;;;22.08;40.81
46291;BME280;32023;44.444;26.006;2022-11-02T08:06:45;100624.31;;;22.39;39.90
46291;BME280;32023;44.444;26.006;2022-11-02T08:09:12;100626.25;;;22.47;40.09
46291;BME280;32023;44.444;26.006;2022-11-02T08:11:40;100628.03;;;22.78;39.30
46291;BME280;32023;44.444;26.006;2022-11-02T08:14:13;100633.09;;;23.01;39.05
46291;BME280;32023;44.444;26.006;2022-11-02T08:16:59;100634.59;;;23.37;38.23
46291;BME280;32023;44.444;26.006;2022-11-02T08:19:49;100638.69;;;23.48;37.73
46291;BME280;32023;44.444;26.006;2022-11-02T08:22:21;100636.03;;;23.72;37.38
46291;BME280;32023;44.444;26.006;2022-11-02T08:24:47;100628.09;;;23.95;37.14
46291;BME280;32023;44.444;26.006;2022-11-02T08:30:33;100626.16;;;24.16;36.49
46291;BME280;32023;44.444;26.006;2022-11-02T08:33:14;100616.59;;;24.62;35.83
46291;BME280;32023;44.444;26.006;2022-11-02T08:35:45;100615.31;;;24.72;35.52
46291;BME280;32023;44.444;26.006;2022-11-02T08:41:21;100610.13;;;24.95;35.09
46291;BME280;32023;44.444;26.006;2022-11-02T08:43:53;100603.91;;;25.25;34.36
46291;BME280;32023;44.444;26.006;2022-11-02T08:46:20;100608.03;;;25.64;34.19
46291;BME280;32023;44.444;26.006;2022-11-02T08:48:46;100619.25;;;26.01;33.37
46291;BME280;32023;44.444;26.006;2022-11-02T08:51:12;100612.53;;;26.05;33.12
46291;BME280;32023;44.444;26.006;2022-11-02T08:53:42;100612.66;;;26.37;32.52
46291;BME280;32023;44.444;26.006;2022-11-02T08:56:15;100612.16;;;26.47;32.38
46291;BME280;32023;44.444;26.006;2022-11-02T08:58:42;100606.44;;;26.74;31.86
46291;BME280;32023;44.444;26.006;2022-11-02T09:01:08;100610.00;;;27.15;31.40
46291;BME280;32023;44.444;26.006;2022-11-02T09:03:34;100601.13;;;27.32;31.01
46291;BME280;32023;44.444;26.006;2022-11-02T09:06:01;100595.56;;;27.20;30.94
46291;BME280;32023;44.444;26.006;2022-11-02T09:08:29;100606.44;;;27.49;30.29
46291;BME280;32023;44.444;26.006;2022-11-02T09:11:00;100599.56;;;28.20;29.58
46291;BME280;32023;44.444;26.006;2022-11-02T09:13:27;100598.19;;;28.33;29.38
46291;BME280;32023;44.444;26.006;2022-11-02T09:15:56;100602.25;;;28.13;29.52
46291;BME280;32023;44.444;26.006;2022-11-02T09:18:23;100595.88;;;28.58;28.71
46291;BME280;32023;44.444;26.006;2022-11-02T09:20:49;100594.88;;;29.11;28.04
46291;BME280;32023;44.444;26.006;2022-11-02T09:23:26;100591.06;;;29.27;27.66
46291;BME280;32023;44.444;26.006;2022-11-02T09:25:53;100600.66;;;29.41;27.28
46291;BME280;32023;44.444;26.006;2022-11-02T09:28:22;100596.81;;;30.09;26.78
46291;BME280;32023;44.444;26.006;2022-11-02T09:30:48;100599.09;;;31.00;25.58
46291;BME280;32023;44.444;26.006;2022-11-02T09:33:15;100585.31;;;32.18;23.90
46291;BME280;32023;44.444;26.006;2022-11-02T09:35:44;100587.63;;;33.24;22.58
46291;BME280;32023;44.444;26.006;2022-11-02T09:38:11;100588.31;;;34.16;21.76
46291;BME280;32023;44.444;26.006;2022-11-02T09:40:40;100584.81;;;34.64;20.91
46291;BME280;32023;44.444;26.006;2022-11-02T09:46:10;100581.19;;;35.18;19.89
46291;BME280;32023;44.444;26.006;2022-11-02T09:48:47;100588.50;;;35.26;19.76
46291;BME280;32023;44.444;26.006;2022-11-02T09:54:01;100578.94;;;36.79;17.93
46291;BME280;32023;44.444;26.006;2022-11-02T09:56:49;100573.56;;;38.01;17.29
46291;BME280;32023;44.444;26.006;2022-11-02T09:59:21;100576.72;;;38.26;16.77
46291;BME280;32023;44.444;26.006;2022-11-02T10:08:21;100556.00;;;39.84;15.08
46291;BME280;32023;44.444;26.006;2022-11-02T10:11:09;100545.25;;;41.18;14.13
46291;BME280;32023;44.444;26.006;2022-11-02T10:13:56;100552.97;;;40.45;14.30
46291;BME280;32023;44.444;26.006;2022-11-02T10:16:37;100544.97;;;42.28;13.46
46291;BME280;32023;44.444;26.006;2022-11-02T10:19:26;100555.50;;;43.73;12.24
46291;BME280;32023;44.444;26.006;2022-11-02T10:21:58;100547.50;;;44.46;11.78
46291;BME280;32023;44.444;26.006;2022-11-02T10:24:34;100542.84;;;43.30;12.26
46291;BME280;32023;44.444;26.006;2022-11-02T10:27:21;100545.03;;;42.37;12.79
46291;BME280;32023;44.444;26.006;2022-11-02T10:30:09;100541.28;;;41.84;13.14
46291;BME280;32023;44.444;26.006;2022-11-02T10:32:39;100529.88;;;41.55;13.68
46291;BME280;32023;44.444;26.006;2022-11-02T10:35:19;100539.13;;;41.16;13.80
46291;BME280;32023;44.444;26.006;2022-11-02T10:46:44;100521.72;;;41.75;13.32
46291;BME280;32023;44.444;26.006;2022-11-02T10:49:50;100526.53;;;43.05;12.23
46291;BME280;32023;44.444;26.006;2022-11-02T10:52:22;100519.59;;;43.03;12.49
46291;BME280;32023;44.444;26.006;2022-11-02T10:54:50;100509.38;;;43.56;11.95
46291;BME280;32023;44.444;26.006;2022-11-02T10:57:25;100513.66;;;43.15;11.98
46291;BME280;32023;44.444;26.006;2022-11-02T11:00:31;100496.78;;;41.91;12.59
46291;BME280;32023;44.444;26.006;2022-11-02T11:03:12;100502.81;;;41.15;12.96
46291;BME280;32023;44.444;26.006;2022-11-02T11:06:01;100496.31;;;41.92;13.03
46291;BME280;32023;44.444;26.006;2022-11-02T11:08:43;100501.63;;;43.44;11.85
46291;BME280;32023;44.444;26.006;2022-11-02T11:14:23;100486.81;;;43.51;11.79
46291;BME280;32023;44.444;26.006;2022-11-02T11:16:59;100490.84;;;44.50;10.88
46291;BME280;32023;44.444;26.006;2022-11-02T11:19:30;100493.56;;;43.76;11.28
46291;BME280;32023;44.444;26.006;2022-11-02T11:21:59;100483.91;;;43.60;11.41
46291;BME280;32023;44.444;26.006;2022-11-02T11:24:28;100491.97;;;43.75;11.64
46291;BME280;32023;44.444;26.006;2022-11-02T11:27:20;100482.03;;;44.36;11.11
46291;BME280;32023;44.444;26.006;2022-11-02T11:29:56;100480.38;;;44.53;10.81
46291;BME280;32023;44.444;26.006;2022-11-02T11:32:25;100474.41;;;43.87;11.26
46291;BME280;32023;44.444;26.006;2022-11-02T11:35:02;100471.66;;;43.65;11.40
46291;BME280;32023;44.444;26.006;2022-11-02T11:37:35;100474.47;;;41.78;12.70
46291;BME280;32023;44.444;26.006;2022-11-02T11:40:35;100470.03;;;40.46;13.68
46291;BME280;32023;44.444;26.006;2022-11-02T11:43:02;100461.94;;;40.53;13.60
46291;BME280;32023;44.444;26.006;2022-11-02T11:45:34;100468.97;;;41.93;12.74
46291;BME280;32023;44.444;26.006;2022-11-02T11:51:02;100456.97;;;43.24;11.45
46291;BME280;32023;44.444;26.006;2022-11-02T11:53:30;100448.06;;;42.20;12.13
46291;BME280;32023;44.444;26.006;2022-11-02T11:55:58;100458.34;;;41.47;12.13
46291;BME280;32023;44.444;26.006;2022-11-02T11:58:25;100458.72;;;42.23;11.82
46291;BME280;32023;44.444;26.006;2022-11-02T12:03:58;100442.25;;;41.46;12.60
46291;BME280;32023;44.444;26.006;2022-11-02T12:09:29;100431.38;;;39.03;14.33
46291;BME280;32023;44.444;26.006;2022-11-02T12:35:49;100413.19;;;36.83;15.87
46291;BME280;32023;44.444;26.006;2022-11-02T12:54:19;100398.63;;;34.41;17.59
46291;BME280;32023;44.444;26.006;2022-11-02T12:56:50;100399.97;;;34.22;17.51
46291;BME280;32023;44.444;26.006;2022-11-02T12:59:38;100399.75;;;33.88;17.66
46291;BME280;32023;44.444;26.006;2022-11-02T13:05:57;100397.91;;;33.42;18.50
46291;BME280;32023;44.444;26.006;2022-11-02T13:15:14;100393.47;;;30.99;21.08
46291;BME280;32023;44.444;26.006;2022-11-02T13:17:55;100394.94;;;30.83;21.43
46291;BME280;32023;44.444;26.006;2022-11-02T13:28:46;100399.19;;;30.55;21.61
46291;BME280;32023;44.444;26.006;2022-11-02T13:35:18;100396.75;;;30.10;21.96
46291;BME280;32023;44.444;26.006;2022-11-02T13:37:56;100392.53;;;29.97;22.20
46291;BME280;32023;44.444;26.006;2022-11-02T13:50:13;100391.78;;;29.07;23.13
46291;BME280;32023;44.444;26.006;2022-11-02T13:52:57;100393.44;;;29.08;23.51
46291;BME280;32023;44.444;26.006;2022-11-02T13:55:44;100387.25;;;29.02;23.52
46291;BME280;32023;44.444;26.006;2022-11-02T13:58:35;100393.06;;;28.83;23.50
46291;BME280;32023;44.444;26.006;2022-11-02T14:08:19;100398.91;;;28.03;24.86
46291;BME280;32023;44.444;26.006;2022-11-02T14:17:22;100398.53;;;27.43;25.46
46291;BME280;32023;44.444;26.006;2022-11-02T14:19:57;100394.66;;;27.32;25.84
46291;BME280;32023;44.444;26.006;2022-11-02T14:33:08;100393.91;;;26.65;26.31
46291;BME280;32023;44.444;26.006;2022-11-02T14:42:49;100398.53;;;26.11;27.15
46291;BME280;32023;44.444;26.006;2022-11-02T14:58:13;100399.56;;;25.47;27.79
46291;BME280;32023;44.444;26.006;2022-11-02T15:03:40;100404.59;;;25.26;28.33
46291;BME280;32023;44.444;26.006;2022-11-02T15:06:23;100416.09;;;25.21;28.29
46291;BME280;32023;44.444;26.006;2022-11-02T15:12:34;100413.69;;;24.71;30.90
46291;BME280;32023;44.444;26.006;2022-11-02T15:18:39;100428.06;;;24.09;33.15
46291;BME280;32023;44.444;26.006;2022-11-02T15:24:02;100430.88;;;23.76;33.89
46291;BME280;32023;44.444;26.006;2022-11-02T15:26:50;100437.66;;;23.63;34.37
46291;BME280;32023;44.444;26.006;2022-11-02T15:32:19;100440.84;;;23.32;34.98
46291;BME280;32023;44.444;26.006;2022-11-02T15:34:52;100447.38;;;23.24;35.24
46291;BME280;32023;44.444;26.006;2022-11-02T15:40:34;100439.88;;;22.86;36.43
46291;BME280;32023;44.444;26.006;2022-11-02T15:55:00;100465.09;;;22.11;38.74
46291;BME280;32023;44.444;26.006;2022-11-02T15:57:38;100473.06;;;22.00;39.02
46291;BME280;32023;44.444;26.006;2022-11-02T16:00:21;100472.06;;;21.87;39.23
46291;BME280;32023;44.444;26.006;2022-11-02T16:03:04;100473.75;;;21.71;39.70
46291;BME280;32023;44.444;26.006;2022-11-02T16:08:33;100478.69;;;21.40;39.98
46291;BME280;32023;44.444;26.006;2022-11-02T16:11:11;100476.22;;;21.30;40.04
46291;BME280;32023;44.444;26.006;2022-11-02T16:13:45;100479.97;;;21.17;40.07
46291;BME280;32023;44.444;26.006;2022-11-02T16:16:17;100482.56;;;21.04;40.02
46291;BME280;32023;44.444;26.006;2022-11-02T16:18:51;100482.88;;;20.94;40.13
46291;BME280;32023;44.444;26.006;2022-11-02T16:21:37;100487.13;;;20.83;40.18
46291;BME280;32023;44.444;26.006;2022-11-02T16:24:03;100494.84;;;20.78;40.30
46291;BME280;32023;44.444;26.006;2022-11-02T16:26:40;100493.19;;;20.68;40.29
46291;BME280;32023;44.444;26.006;2022-11-02T16:29:08;100493.97;;;20.60;40.32
46291;BME280;32023;44.444;26.006;2022-11-02T16:31:34;100487.50;;;20.51;40.34
46291;BME280;32023;44.444;26.006;2022-11-02T16:36:43;100495.19;;;20.37;40.55
46291;BME280;32023;44.444;26.006;2022-11-02T16:42:20;100493.78;;;20.26;40.52
46291;BME280;32023;44.444;26.006;2022-11-02T16:44:57;100498.34;;;20.22;40.46
46291;BME280;32023;44.444;26.006;2022-11-02T16:47:40;100504.91;;;20.17;40.52
46291;BME280;32023;44.444;26.006;2022-11-02T16:50:21;100504.22;;;20.11;40.75
46291;BME280;32023;44.444;26.006;2022-11-02T16:52:59;100506.66;;;20.04;40.88
46291;BME280;32023;44.444;26.006;2022-11-02T16:55:50;100512.00;;;19.92;40.92